createdAt,value
2023-02-01T00:03:22.711Z,4.20
2023-02-01T00:08:25.269Z,4.10
2023-02-01T00:13:30.796Z,4.10
2023-02-01T00:18:33.687Z,4.10
2023-02-01T00:23:37.254Z,4.10
2023-02-01T00:28:39.443Z,4.10
2023-02-01T00:33:41.888Z,4.00
2023-02-01T00:38:44.386Z,4.00
2023-02-01T00:43:47.630Z,4.00
2023-02-01T00:48:50.139Z,4.00
2023-02-01T00:53:52.625Z,3.90
2023-02-01T00:58:54.907Z,4.00
2023-02-01T01:03:59.424Z,3.90
2023-02-01T01:09:04.837Z,3.90
2023-02-01T01:14:08.864Z,3.90
2023-02-01T01:19:13.060Z,3.90
2023-02-01T01:25:14.927Z,3.90
2023-02-01T01:30:28.264Z,3.80
2023-02-01T01:35:33.159Z,3.70
2023-02-01T01:40:35.466Z,3.70
2023-02-01T01:45:37.813Z,3.70
2023-02-01T01:50:49.338Z,3.70
2023-02-01T01:55:53.176Z,3.70
2023-02-01T02:00:55.903Z,3.80
2023-02-01T02:06:00.171Z,3.90
2023-02-01T02:11:02.641Z,4.00
2023-02-01T02:37:54.783Z,3.90
2023-02-01T02:48:38.796Z,4.20
2023-02-01T02:59:35.533Z,4.20
2023-02-01T03:04:37.975Z,4.30
2023-02-01T03:09:42.627Z,4.20
2023-02-01T03:14:48.363Z,4.20
2023-02-01T03:19:53.151Z,4.10
2023-02-01T03:25:02.903Z,4.10
2023-02-01T03:30:31.021Z,4.20
2023-02-01T03:41:11.170Z,4.20
2023-02-01T03:46:20.759Z,4.20
2023-02-01T03:51:24.383Z,4.20
2023-02-01T03:56:28.389Z,4.20
2023-02-01T04:01:31.932Z,4.20
2023-02-01T04:06:34.276Z,4.20
2023-02-01T04:11:38.991Z,4.20
2023-02-01T04:16:41.060Z,4.20
2023-02-01T04:21:43.222Z,4.10
2023-02-01T04:26:45.371Z,4.10
2023-02-01T04:31:47.691Z,4.10
2023-02-01T04:36:49.836Z,4.20
2023-02-01T04:41:51.914Z,4.10
2023-02-01T04:46:54.059Z,4.10
2023-02-01T04:51:56.115Z,3.90
2023-02-01T04:56:58.222Z,3.80
2023-02-01T05:02:00.280Z,3.70
2023-02-01T05:07:02.361Z,3.60
2023-02-01T05:12:25.294Z,3.50
2023-02-01T05:17:27.488Z,3.50
2023-02-01T05:22:29.503Z,3.60
2023-02-01T05:27:31.674Z,3.60
2023-02-01T05:32:34.005Z,3.50
2023-02-01T05:37:36.355Z,3.40
2023-02-01T05:42:38.407Z,3.40
2023-02-01T05:47:40.532Z,3.40
2023-02-01T05:52:42.643Z,3.30
2023-02-01T05:57:44.716Z,3.40
2023-02-01T06:02:46.829Z,3.00
2023-02-01T06:07:50.707Z,3.10
2023-02-01T06:12:53.839Z,3.10
2023-02-01T06:17:55.978Z,3.00
2023-02-01T06:22:58.130Z,2.70
2023-02-01T06:28:01.779Z,2.80
2023-02-01T06:33:03.880Z,3.00
2023-02-01T06:38:05.931Z,2.80
2023-02-01T06:43:07.985Z,3.10
2023-02-01T06:48:10.113Z,3.40
2023-02-01T06:53:12.177Z,3.60
2023-02-01T06:58:14.251Z,3.50
2023-02-01T07:03:16.268Z,3.50
2023-02-01T07:08:18.382Z,3.50
2023-02-01T07:13:20.444Z,3.60
2023-02-01T07:18:22.472Z,3.70
2023-02-01T07:23:24.622Z,4.10
2023-02-01T07:28:27.299Z,4.30
2023-02-01T07:33:29.438Z,4.60
2023-02-01T07:38:31.667Z,6.10
2023-02-01T07:43:34.874Z,8.70
2023-02-01T07:48:37.362Z,11.10
2023-02-01T07:53:40.075Z,13.30
2023-02-01T07:58:42.769Z,14.80
2023-02-01T08:03:44.974Z,16.00
2023-02-01T08:08:48.254Z,15.50
2023-02-01T08:13:51.142Z,14.90
2023-02-01T08:18:55.197Z,16.20
2023-02-01T08:23:57.536Z,17.20
2023-02-01T08:29:02.063Z,18.20
2023-02-01T08:34:05.592Z,18.70
2023-02-01T08:39:10.104Z,19.00
2023-02-01T08:44:12.501Z,19.50
2023-02-01T08:49:14.684Z,20.10
2023-02-01T08:54:16.972Z,20.30
2023-02-01T08:59:19.278Z,20.20
2023-02-01T09:04:21.523Z,20.30
2023-02-01T09:09:24.474Z,20.20
2023-02-01T09:14:26.786Z,20.00
2023-02-01T09:19:29.042Z,19.70
2023-02-01T09:24:31.425Z,19.00
2023-02-01T09:29:33.716Z,17.10
2023-02-01T09:34:36.291Z,15.00
2023-02-01T09:39:38.487Z,13.60
2023-02-01T09:50:21.678Z,11.60
2023-02-01T09:55:44.544Z,11.00
2023-02-01T10:00:53.650Z,10.50
2023-02-01T10:06:35.585Z,10.00
2023-02-01T10:17:42.596Z,9.70
2023-02-01T10:27:54.735Z,9.30
2023-02-01T10:33:01.697Z,9.20
2023-02-01T10:38:18.204Z,9.00
2023-02-01T10:43:21.645Z,8.90
2023-02-01T10:48:24.414Z,9.00
2023-02-01T10:58:50.633Z,8.90
2023-02-01T11:14:26.997Z,8.80
2023-02-01T11:19:30.364Z,9.00
2023-02-01T11:24:36.645Z,9.00
2023-02-01T11:29:42.424Z,9.00
2023-02-01T11:34:50.303Z,8.70
2023-02-01T11:39:58.778Z,8.70
2023-02-01T11:45:25.272Z,8.60
2023-02-01T13:05:18.629Z,10.40
2023-02-01T13:15:34.541Z,10.10
2023-02-01T13:21:03.921Z,9.80
2023-02-01T13:26:06.282Z,9.70
2023-02-01T13:47:23.228Z,8.80
2023-02-01T13:52:32.037Z,8.90
2023-02-01T13:57:38.991Z,9.00
2023-02-01T14:24:03.056Z,8.90
2023-02-01T14:44:59.248Z,8.40
2023-02-01T15:00:29.479Z,8.20
2023-02-01T15:05:34.944Z,8.10
2023-02-01T15:10:44.654Z,8.10
2023-02-01T15:16:00.269Z,8.10
2023-02-01T15:21:09.500Z,8.10
2023-02-01T15:26:29.058Z,8.10
2023-02-01T15:31:36.078Z,8.10
2023-02-01T15:36:38.775Z,8.10
2023-02-01T15:41:42.824Z,8.00
2023-02-01T15:46:48.901Z,8.00
2023-02-01T15:51:51.853Z,7.90
2023-02-01T15:56:57.349Z,7.90
2023-02-01T16:01:59.903Z,7.80
2023-02-01T16:07:05.705Z,7.70
2023-02-01T16:12:29.597Z,7.70
2023-02-01T16:17:32.626Z,7.50
2023-02-01T16:22:34.883Z,7.50
2023-02-01T16:27:37.059Z,7.50
2023-02-01T16:32:39.722Z,7.40
2023-02-01T16:37:42.032Z,7.40
2023-02-01T16:42:44.725Z,7.40
2023-02-01T16:47:53.106Z,7.40
2023-02-01T16:52:55.412Z,7.40
2023-02-01T16:57:57.604Z,7.40
2023-02-01T17:02:59.771Z,7.30
2023-02-01T17:08:06.774Z,7.20
2023-02-01T17:13:14.970Z,7.10
2023-02-01T17:18:19.383Z,7.10
2023-02-01T17:23:40.251Z,7.10
2023-02-01T17:28:42.571Z,7.10
2023-02-01T17:33:45.673Z,7.10
2023-02-01T17:38:59.875Z,7.00
2023-02-01T17:44:10.046Z,7.00
2023-02-01T17:49:12.307Z,6.90
2023-02-01T17:54:15.386Z,6.90
2023-02-01T17:59:17.848Z,6.80
2023-02-01T18:04:21.791Z,6.80
2023-02-01T18:09:24.205Z,6.70
2023-02-01T18:14:26.511Z,6.70
2023-02-01T18:19:28.836Z,6.70
2023-02-01T18:24:33.672Z,6.60
2023-02-01T18:29:35.880Z,6.60
2023-02-01T18:34:38.354Z,6.60
2023-02-01T18:39:40.522Z,6.60
2023-02-01T18:44:42.752Z,6.60
2023-02-01T18:49:44.963Z,6.60
2023-02-01T18:54:58.867Z,6.60
2023-02-01T19:00:02.367Z,6.60
2023-02-01T19:05:05.279Z,6.50
2023-02-01T19:10:22.256Z,6.50
2023-02-01T19:15:26.332Z,6.50
2023-02-01T19:20:28.812Z,6.50
2023-02-01T19:25:31.078Z,6.50
2023-02-01T19:30:33.297Z,6.50
2023-02-01T19:35:35.621Z,6.40
2023-02-01T19:40:38.495Z,6.40
2023-02-01T19:45:40.729Z,6.30
2023-02-01T19:50:43.070Z,6.20
2023-02-01T19:55:46.843Z,6.10
2023-02-01T20:00:54.429Z,6.10
2023-02-01T20:05:58.443Z,6.00
2023-02-01T20:11:01.119Z,6.00
2023-02-01T20:16:03.408Z,6.00
2023-02-01T20:21:06.042Z,6.00
2023-02-01T20:26:12.282Z,6.00
2023-02-01T20:31:15.672Z,5.90
2023-02-01T20:36:18.078Z,5.90
2023-02-01T20:41:20.883Z,5.80
2023-02-01T20:46:23.988Z,5.80
2023-02-01T20:51:26.320Z,5.80
2023-02-01T20:56:28.479Z,5.80
2023-02-01T21:01:31.244Z,5.80
2023-02-01T21:06:33.523Z,5.70
2023-02-01T21:11:35.712Z,5.70
2023-02-01T21:16:38.280Z,5.70
2023-02-01T21:21:42.164Z,5.70
2023-02-01T21:26:44.465Z,5.70
2023-02-01T21:31:46.630Z,5.70
2023-02-01T21:36:48.861Z,5.70
2023-02-01T21:42:10.980Z,5.60
2023-02-01T21:47:14.560Z,5.60
2023-02-01T21:52:17.945Z,5.50
2023-02-01T21:57:20.150Z,5.50
2023-02-01T22:02:22.474Z,5.50
2023-02-01T22:07:24.822Z,5.50
2023-02-01T22:12:27.212Z,5.40
2023-02-01T22:17:29.766Z,5.40
2023-02-01T22:22:32.021Z,5.40
2023-02-01T22:28:30.380Z,5.40
2023-02-01T22:32:56.345Z,5.40
2023-02-01T22:37:58.581Z,5.30
2023-02-01T22:43:00.924Z,5.40
2023-02-01T22:48:04.025Z,5.40
2023-02-01T22:53:07.184Z,5.40
2023-02-01T22:58:09.509Z,5.40
2023-02-01T23:03:12.104Z,5.40
2023-02-01T23:08:14.336Z,5.40
2023-02-01T23:13:16.594Z,5.50
2023-02-01T23:18:18.880Z,5.50
2023-02-01T23:23:21.202Z,5.60
2023-02-01T23:28:23.476Z,5.60
2023-02-01T23:33:27.189Z,5.60
2023-02-01T23:38:30.147Z,5.60
2023-02-01T23:43:52.924Z,5.50
2023-02-01T23:48:55.620Z,5.60
2023-02-01T23:53:58.576Z,5.70
2023-02-01T23:59:03.201Z,5.80
